METAR Data
IDs: Format: Raw Decoded Include TAF

Data at: 2355 UTC 24 Apr 2019

PAJN 242253Z COR 00000KT 10SM SCT041 BKN055 BKN200 06/00 A3034 RMK AO2 SGB2151E59B38E42 SLP272 PRESENT WX VCSH NE-E SW NW-N P0000 T00560000
PAJN 242153Z COR 25007KT 10SM SCT041TCU BKN060 BKN200 06/M03 A3032 RMK AO2 SLP266 TCU OHD AND N-NE PRESENT WX -SG T00561028
PAJN 242053Z 16003KT 10SM FEW030 BKN041 BKN055 BKN200 06/M01 A3031 RMK AO2 RAE07 SLP265 P0000 60001 T00561011 51014
PAJN 241953Z 20004KT 10SM -RA FEW009 SCT040 BKN047 BKN200 04/00 A3031 RMK AO2 RAB45 SLP263 P0000 T00440000
PAJN 241853Z 07005KT 10SM FEW007 SCT017 BKN060 BKN200 03/01 A3030 RMK AO2 RAB09E40SNB12E40 SLP260 PRESENT WX VCSH N AND S P0001 T00280011
PAJN 241840Z COR 13005KT 10SM FEW007 SCT019 SCT050 02/01 A3029 RMK AO2 RAB09E40SNB12E40 P0001 T00220006
PAJN 241825Z 31004KT 5SM -RASN BR FEW014 BKN025 OVC047 03/01 A3029 RMK AO2 RAB09SNB12 VIS HYR S-W OCNL BINOVC P0000 T00280011
PAJN 241753Z 31004KT 10SM FEW011 SCT028 OVC049 04/01 A3027 RMK AO2 RAB39E53 SLP251 P0000 60001 T00390006 10044 20017 51013
PAJN 241653Z 12006KT 10SM FEW013 SCT029 OVC060 04/01 A3026 RMK AO2 SLP248 T00390006
PAJN 241553Z VRB04KT 10SM FEW026 SCT039 BKN055 03/01 A3026 RMK AO2 SLP245 T00330011
PAJN 241453Z 07005KT 10SM FEW016 BKN035 OVC060 02/01 A3024 RMK AO2 RAB08E49SNE49 SLP238 PRESENT WX VCSH E-SE AND SW-NW BINOVC P0001 60001 T00220006 53009
PAJN 241424Z 07006KT 10SM -SNRA FEW021 BKN034 OVC043 02/01 A3023 RMK AO2 RAB08 OCNL BINOVC P0001 T00170006
PAJN 241353Z 09004KT 5SM -SN BR FEW015 BKN026 OVC040 02/00 A3023 RMK AO2 SNB23 SLP236 P0000 T00220000
PAJN 241344Z 00000KT 5SM -SN BR BKN027 OVC045 02/00 A3023 RMK AO2 SNB23 P0000 T00220000
PAJN 241253Z 06006KT 10SM FEW021 BKN036 OVC048 02/00 A3021 RMK AO2 SLP231 PRESENT WX VCSH ALQDS T00220000
PAJN 241153Z 07006KT 10SM BKN039 OVC055 02/00 A3021 RMK AO2 SLP229 60001 70023 T00170000 10028 20011 53004
PAJN 241053Z 11004KT 10SM FEW015 BKN037 OVC055 02/00 A3020 RMK AO2 SNB14E48 SLP227 P0000 T00170000
PAJN 240953Z 09005KT 10SM FEW013 SCT028 OVC045 02/01 A3020 RMK AO2 SLP225 T00170006
PAJN 240853Z 11007KT 9SM FEW011 BKN024 OVC043 01/00 A3018 RMK AO2 RAE09SNE49 SLP220 P0001 60001 T00110000 400500011 51017
PAJN 240816Z 05005KT 3SM -SN BR FEW010 BKN019 OVC043 01/00 A3018 RMK AO2 RAE09 P0001 T00110000
PAJN 240807Z 09004KT 2 1/2SM -SNRA BR FEW010 BKN015 OVC046 01/00 A3018 RMK AO2 P0000 T00110000
PAJN 240753Z 12007KT 10SM -SNRA BKN037 OVC049 02/00 A3017 RMK AO2 SLP216 RAB38SNB38 P0000 T00170000
PAJN 240653Z 08008KT 10SM FEW027 BKN037 OVC055 02/00 A3015 RMK AO2 RAB33E43SNB05E43 SLP210 OCNL BINOVC P0000 T00170000
PAJN 240553Z 06006KT 10SM SCT045 BKN060 OVC100 03/01 A3013 RMK AO2 SLP203 BINOVC 60000 T00280006 10050 20022 53021
PAJN 240453Z 05005KT 10SM FEW013 SCT041 BKN055 BKN160 03/00 A3011 RMK AO2 SLP195 T00280000
PAJN 240353Z 12006KT 10SM FEW026 SCT046 SCT080 BKN180 03/00 A3008 RMK AO2 SLP185 T00280000
PAJN 240253Z 19004KT 10SM SCT031 BKN041 BKN055 BKN170 04/M01 A3007 RMK AO2 SLP182 60000 T00441011 53012
PAJN 240153Z 10007KT 10SM FEW005 BKN034 BKN075 03/01 A3005 RMK AO2 RAB0054E35 SLP177 P0000 T00330006
PAJN 240053Z 15006KT 10SM FEW006 BKN036 OVC050 04/01 A3004 RMK AO2 SLP172 PRESENT WX VCSH SE-W T00390011
PAJN 232353Z 07007KT 10SM FEW004 SCT032 BKN050 BKN170 03/01 A3003 RMK PK WND 27026/2303 WSHFT 2301 RAB2258E09B31E38SNB2258E38PLB01E03B09E11 SLP170 PRESENT WX VCSH N P0004 60009 T00330011 10050 20011 53021 VIA AUTODIAL
PAJN 232334Z 31003KT 7SM -RASN FEW009 BKN029 BKN055 BKN160 02/01 A3003 RMK AO2 PK WND 27026/2303 WSHFT 2301 RAB2258E09B31SNB2258PLB01E03B09E11 VIS LWR E-SE P0003 T00170006
PAJN 232320Z VRB05KT 2SM R08/3000V5000FT -SN BR FEW007 BKN027 OVC040 01/00 A3004 RMK AO2 PK WND 27026/2303 WSHFT 2301 RAB2258E09SNB2258PLB01E03B09E11 P0001 T00110000
PAJN 232311Z 26015G26KT 1 3/4SM R08/5000VP6000FT -SN BR FEW007 BKN027 OVC040 02/00 A3004 RMK AO2 PK WND 27026/2303 TWR VIS 2 RAB2258E09SNB2258PLB01E03B09E11 VIS E-SE 4 W-NW 1 1/2 P0000 T00220000
PAJN 232308Z 27018G26KT 2SM R08/6000VP6000FT -SNRA BR FEW012 BKN031 OVC040 02/00 A3004 RMK AO2 PK WND 27026/2303 SFC VIS 3 RAB2258SNB2258PLB01E03 VIS E-SE 7 P0000 T00220000
PAJN 232301Z 25013G23KT 3SM R08/6000VP6000FT -PLSNRA FEW012 BKN031 OVC040 05/01 A3003 RMK AO2 RAB2258SNB2258PLB01 PRESRR VIS E-SE 7 P0000 T00500006
PAJN 232253Z VRB05KT 10SM FEW012 BKN032 OVC055 05/01 A3001 RMK AO2 SLP163 PRESENT WX VCSH N-E AND S-W T00500011
PAJN 232153Z 10009KT 10SM FEW008 BKN032 OVC080 04/02 A2999 RMK SLP155 T00440017 VIA AUTODIAL
PAJN 232053Z 08003KT 10SM FEW004 BKN033 OVC080 04/02 A2997 RMK AO2 RAE47SNE47 SLP149 OCNL BINOVC P0004 60005 T00390017 51012
PAJN 232040Z 34003KT 4SM -RASN BR SCT020 BKN043 OVC080 03/02 A2998 RMK AO2 P0004 T00330017
PAJN 232030Z 28004KT 2SM -SNRA BR SCT020 OVC034 03/01 A2998 RMK AO2 SFC VIS 3 P0003 T00280011
PAJN 231953Z 31007KT 3SM -RASN BR FEW006 SCT014 OVC034 01/01 A2997 RMK AO2 PK WND 28026/1933 WSHFT 1932 SNB24 SLP147 VIS N-SE 2 1/2 P0001 T00110006
PAJN 231948Z 29011KT 2SM R08/4500VP6000FT -RASN BR FEW007 SCT012 OVC036 01/01 A2996 RMK AO2 PK WND 28026/1933 WSHFT 1932 SFC VIS 3 SNB24 VIS N-SE 2 1/2 P0000
PAJN 231945Z 29012KT 2SM R08/4500VP6000FT -RASN BR FEW007 SCT012 OVC049 01/00 A2996 RMK AO2 PK WND 28026/1933 SFC VIS 2 1/2 SNB24 P0000 T00110000
PAJN 231941Z 27016G26KT 1 3/4SM R08/4500VP6000FT -SNRA BR FEW007 BKN033 OVC046 02/00 A2996 RMK AO2 PK WND 28026/1933 TWR VIS 2 SNB24 P0000 T00170000
PAJN 231932Z 29012G22KT 2SM R08/6000VP6000FT -SNRA FEW011 BKN033 OVC048 04/02 A2997 RMK AO2 SNB24 PRESRR VIS NE-S 7 P0000 T00440017
PAJN 231853Z 06006KT 10SM -RA FEW011 BKN034 OVC055 04/01 A2993 RMK AO2 SLP136 RAB25 P0000 T00440006
PAJN 231753Z COR 05004KT 10SM SCT028 BKN038 OVC050 04/02 A2992 RMK AO2 RAB39E47 SLP131 PRESENT WX VCSH E-S P0000 60013 T00390017 10050 20028 53020
PAJN 231653Z 11008KT 10SM FEW010 FEW028 BKN038 OVC200 04/02 A2989 RMK AO2 SLP123 T00390022
PAJN 231553Z 10009KT 10SM FEW011 BKN032 OVC055 03/02 A2988 RMK AO2 RAE32 SLP118 P0001 T00280017
PAJN 231453Z 12014KT 6SM -RA BR FEW013 BKN028 OVC042 03/02 A2986 RMK AO2 PK WND 12026/1407 SLP111 P0003 60012 T00330017 53010
PAJN 231353Z 11019G24KT 6SM -RA BR FEW013 BKN025 OVC044 04/02 A2984 RMK AO2 PK WND 12031/1257 SLP103 P0007 T00390022
PAJN 231253Z 11023G30KT 5SM -RA BR FEW019 BKN028 OVC045 04/02 A2983 RMK AO2 PK WND 13032/1227 SLP101 P0002 T00390017
PAJN 231250Z 12024G30KT 5SM -RA BR FEW019 BKN028 OVC045 04/02 A2983 RMK AO2 PK WND 13032/1227 P0001